Upstream stations:
Downstream station:
SHEF ID: IOLK1 NEOSHO RIVER NEAR IOLA
STATION TYPE:
Regulating: Stage = 15.00, Flow = 18228
PRECIP STAGE RIV-FLOW BAT-LOAD
in ft cfs volt
Ccp-Rev Ccp-Rev Ccp-Rev Ccp-Rev
(US/Central)
04/06 00:00 0.00 8.71 3486 12.61
04/06 01:00 0.00 8.88 3997 12.59
04/06 02:00 0.01 9.06 4580 12.55
04/06 03:00 0.06 9.21 5106 12.53
04/06 04:00 0.01 9.32 5508 12.52
04/06 05:00 0.01 9.45 6002 12.48
04/06 06:00 0.00 9.53 6316 12.45
04/06 07:00 0.00 9.59 6556 12.44
04/06 08:00 0.00 9.67 6883 12.46
04/06 09:00 0.00 9.67 6883 13.60
04/06 10:00 0.00 9.74 7175 13.62
04/06 11:00 0.00 9.73 7133 13.38
04/06 12:00 0.00 9.80 7430 13.29
04/06 13:00 0.00 9.78 7345 13.22
04/06 14:00 0.00 9.81 7473 13.19
04/06 15:00 0.00 9.81 7473 13.16
04/06 16:00 0.00 9.82 7516 13.09
04/06 17:00 0.00 9.87 7732 13.05
04/06 18:00 0.00 9.82 7516 13.03
04/06 19:00 0.00 9.85 7645 13.05
04/06 20:00 0.00 9.84 7602 12.77
04/06 21:00 0.00 9.90 7864 12.70
04/06 22:00 0.00 9.82 7516 12.65
04/06 23:00 0.00 9.87 7732 12.61